createdAt,value
2019-05-10T00:01:07.480Z,3.12
2019-05-10T00:06:48.191Z,3.10
2019-05-10T00:09:17.056Z,2.87
2019-05-10T00:11:49.335Z,2.95
2019-05-10T00:14:39.332Z,4.20
2019-05-10T00:17:10.540Z,3.60
2019-05-10T00:19:40.010Z,4.05
2019-05-10T00:22:09.444Z,3.60
2019-05-10T00:24:41.307Z,4.15
2019-05-10T00:27:10.899Z,4.05
2019-05-10T00:29:52.522Z,4.65
2019-05-10T00:32:21.980Z,4.53
2019-05-10T00:34:51.503Z,4.30
2019-05-10T00:37:27.627Z,3.83
2019-05-10T00:39:57.106Z,4.00
2019-05-10T00:42:26.613Z,4.10
2019-05-10T00:44:56.050Z,3.25
2019-05-10T00:47:25.534Z,3.62
2019-05-10T00:49:54.988Z,4.87
2019-05-10T00:52:24.514Z,4.30
2019-05-10T00:54:59.683Z,4.65
2019-05-10T00:57:29.142Z,5.72
2019-05-10T00:59:58.594Z,4.58
2019-05-10T01:02:28.072Z,5.67
2019-05-10T01:04:57.513Z,5.03
2019-05-10T01:07:26.978Z,5.78
2019-05-10T01:09:56.479Z,5.67
2019-05-10T01:12:25.914Z,5.62
2019-05-10T01:14:55.410Z,4.58
2019-05-10T01:17:24.890Z,6.60
2019-05-10T01:19:54.450Z,5.75
2019-05-10T01:22:23.953Z,4.60
2019-05-10T01:24:53.409Z,4.42
2019-05-10T01:27:22.827Z,4.97
2019-05-10T01:29:52.416Z,5.65
2019-05-10T01:32:21.926Z,4.40
2019-05-10T01:34:51.378Z,3.60
2019-05-10T01:37:20.906Z,4.45
2019-05-10T01:39:50.435Z,4.80
2019-05-10T01:42:19.904Z,4.03
2019-05-10T01:44:49.353Z,5.08
2019-05-10T01:47:18.809Z,4.62
2019-05-10T01:49:48.300Z,4.53
2019-05-10T01:52:17.738Z,4.95
2019-05-10T01:54:47.203Z,4.00
2019-05-10T01:57:16.666Z,5.20
2019-05-10T01:59:46.127Z,4.30
2019-05-10T02:02:15.666Z,4.80
2019-05-10T02:04:45.639Z,4.20
2019-05-10T02:07:15.161Z,4.65
2019-05-10T02:09:44.627Z,4.05
2019-05-10T02:12:14.133Z,4.28
2019-05-10T02:14:45.438Z,4.25
2019-05-10T02:17:14.916Z,3.62
2019-05-10T02:19:44.350Z,3.77
2019-05-10T02:22:13.814Z,4.25
2019-05-10T02:24:43.279Z,5.10
2019-05-10T02:27:12.727Z,3.35
2019-05-10T02:29:42.208Z,4.05
2019-05-10T02:32:11.691Z,4.17
2019-05-10T02:34:41.141Z,4.53
2019-05-10T02:37:10.599Z,3.95
2019-05-10T02:39:40.067Z,4.17
2019-05-10T02:42:09.518Z,3.60
2019-05-10T02:44:38.960Z,5.55
2019-05-10T02:47:08.475Z,4.60
2019-05-10T02:49:37.962Z,4.45
2019-05-10T02:52:10.422Z,4.67
2019-05-10T02:54:40.069Z,4.20
2019-05-10T02:57:11.501Z,4.58
2019-05-10T02:59:52.730Z,5.58
2019-05-10T03:02:23.845Z,6.33
2019-05-10T03:04:54.436Z,4.22
2019-05-10T03:07:26.080Z,4.47
2019-05-10T03:09:55.527Z,3.87
2019-05-10T03:12:26.579Z,4.08
2019-05-10T03:14:57.987Z,4.08
2019-05-10T03:17:41.329Z,3.60
2019-05-10T03:20:12.719Z,4.08
2019-05-10T03:22:43.731Z,4.15
2019-05-10T03:25:15.093Z,4.00
2019-05-10T03:27:44.693Z,4.65
2019-05-10T03:30:15.088Z,3.85
2019-05-10T03:32:44.543Z,4.65
2019-05-10T03:35:14.080Z,4.92
2019-05-10T03:37:44.614Z,4.22
2019-05-10T03:40:14.207Z,4.28
2019-05-10T03:42:43.729Z,4.47
2019-05-10T03:45:14.987Z,5.08
2019-05-10T03:47:44.551Z,4.53
2019-05-10T03:50:14.123Z,4.65
2019-05-10T03:52:43.624Z,4.87
2019-05-10T03:55:13.146Z,4.85
2019-05-10T03:57:42.582Z,5.72
2019-05-10T04:00:13.292Z,5.12
2019-05-10T04:15:31.388Z,4.25
2019-05-10T04:18:13.075Z,5.45
2019-05-10T04:20:42.633Z,4.37
2019-05-10T04:23:12.078Z,5.90
2019-05-10T04:25:41.528Z,5.20
2019-05-10T04:28:10.978Z,4.95
2019-05-10T04:30:40.437Z,4.05
2019-05-10T04:33:09.870Z,4.92
2019-05-10T04:35:51.940Z,4.55
2019-05-10T04:38:21.373Z,4.87
2019-05-10T04:40:50.805Z,4.25
2019-05-10T04:43:20.279Z,4.08
2019-05-10T04:45:49.729Z,4.50
2019-05-10T04:48:19.171Z,3.80
2019-05-10T04:50:49.415Z,3.95
2019-05-10T04:53:19.187Z,3.87
2019-05-10T04:55:48.732Z,3.90
2019-05-10T04:58:18.187Z,4.03
2019-05-10T05:00:47.651Z,3.30
2019-05-10T05:03:17.096Z,3.87
2019-05-10T05:05:46.600Z,3.40
2019-05-10T05:08:16.270Z,2.77
2019-05-10T05:10:45.730Z,3.58
2019-05-10T05:13:15.216Z,2.70
2019-05-10T05:15:44.655Z,3.42
2019-05-10T05:18:14.118Z,3.98
2019-05-10T05:20:43.579Z,3.10
2019-05-10T05:23:13.025Z,3.42
2019-05-10T05:25:42.455Z,3.85
2019-05-10T05:28:11.909Z,3.80
2019-05-10T05:30:41.387Z,3.98
2019-05-10T05:33:10.861Z,3.45
2019-05-10T05:35:40.343Z,5.62
2019-05-10T05:38:09.773Z,4.42
2019-05-10T05:40:39.231Z,4.28
2019-05-10T05:43:09.864Z,5.37
2019-05-10T05:45:39.338Z,3.98
2019-05-10T05:48:08.889Z,4.10
2019-05-10T05:50:59.199Z,4.22
2019-05-10T05:53:28.675Z,4.87
2019-05-10T05:56:03.081Z,3.65
2019-05-10T05:58:29.313Z,3.30
2019-05-10T06:00:58.804Z,3.35
2019-05-10T06:03:40.484Z,3.40
2019-05-10T06:06:21.619Z,3.02
2019-05-10T06:08:41.069Z,3.75
2019-05-10T06:11:10.498Z,2.67
2019-05-10T06:13:40.059Z,3.90
2019-05-10T06:16:12.761Z,3.27
2019-05-10T06:18:47.121Z,3.12
2019-05-10T06:21:18.020Z,3.00
2019-05-10T06:23:43.910Z,2.80
2019-05-10T06:26:21.452Z,3.08
2019-05-10T06:28:58.177Z,4.40
2019-05-10T06:31:16.955Z,2.58
2019-05-10T06:33:46.873Z,3.58
2019-05-10T06:36:17.678Z,3.27
2019-05-10T06:38:47.176Z,3.83
2019-05-10T06:41:17.430Z,3.70
2019-05-10T06:43:51.240Z,3.35
2019-05-10T06:46:23.468Z,3.75
2019-05-10T06:48:49.940Z,1.80
2019-05-10T06:51:59.335Z,1.80
2019-05-10T06:54:31.406Z,2.40
2019-05-10T06:57:00.856Z,2.65
2019-05-10T06:59:31.851Z,1.52
2019-05-10T07:02:01.287Z,1.77
2019-05-10T07:04:35.031Z,2.22
2019-05-10T07:07:02.985Z,2.02
2019-05-10T07:10:00.365Z,2.40
2019-05-10T07:12:03.711Z,2.52
2019-05-10T07:14:34.646Z,2.52
2019-05-10T07:17:05.584Z,3.22
2019-05-10T07:19:41.930Z,2.12
2019-05-10T07:22:13.147Z,2.08
2019-05-10T07:24:43.183Z,2.90
2019-05-10T07:27:12.730Z,2.42
2019-05-10T07:29:45.909Z,1.52
2019-05-10T07:32:16.362Z,1.87
2019-05-10T07:34:48.827Z,1.77
2019-05-10T07:37:15.534Z,1.77
2019-05-10T07:39:44.974Z,2.52
2019-05-10T07:42:28.325Z,1.62
2019-05-10T07:44:57.790Z,1.83
2019-05-10T07:47:30.575Z,1.85
2019-05-10T07:49:58.364Z,2.85
2019-05-10T07:52:27.763Z,1.70
2019-05-10T07:54:57.262Z,2.42
2019-05-10T07:57:27.028Z,2.47
2019-05-10T07:59:57.729Z,1.82
2019-05-10T08:02:27.730Z,2.75
2019-05-10T08:04:58.439Z,2.62
2019-05-10T08:07:29.458Z,2.20
2019-05-10T08:09:59.546Z,2.42
2019-05-10T08:12:29.248Z,1.62
2019-05-10T08:15:00.089Z,2.20
2019-05-10T08:17:29.550Z,2.33
2019-05-10T08:19:59.062Z,2.08
2019-05-10T08:22:32.839Z,3.05
2019-05-10T08:24:59.602Z,2.27
2019-05-10T08:27:29.045Z,3.30
2019-05-10T08:30:17.937Z,2.55
2019-05-10T08:32:32.240Z,2.08
2019-05-10T08:35:05.076Z,2.27
2019-05-10T08:37:37.415Z,2.65
2019-05-10T08:40:05.418Z,1.90
2019-05-10T08:42:44.218Z,2.15
2019-05-10T08:45:08.925Z,2.15
2019-05-10T08:47:38.650Z,2.17
2019-05-10T08:50:26.030Z,1.75
2019-05-10T08:52:39.340Z,1.67
2019-05-10T08:55:08.844Z,2.00
2019-05-10T08:57:44.439Z,1.62
2019-05-10T09:00:09.856Z,2.25
2019-05-10T09:02:39.351Z,1.57
2019-05-10T09:05:09.027Z,1.40
2019-05-10T09:07:39.059Z,1.62
2019-05-10T09:10:09.835Z,1.27
2019-05-10T09:12:41.785Z,1.70
2019-05-10T09:15:13.462Z,1.80
2019-05-10T09:17:42.858Z,1.22
2019-05-10T09:20:20.848Z,1.77
2019-05-10T09:22:44.266Z,1.30
2019-05-10T09:25:13.987Z,1.82
2019-05-10T09:27:43.508Z,1.37
2019-05-10T09:30:18.405Z,1.98
2019-05-10T09:32:45.956Z,1.83
2019-05-10T09:35:15.481Z,1.22
2019-05-10T09:37:47.796Z,3.37
2019-05-10T09:40:16.084Z,1.65
2019-05-10T09:42:45.534Z,1.70
2019-05-10T09:45:15.202Z,1.42
2019-05-10T09:47:44.658Z,1.25
2019-05-10T09:50:14.762Z,1.30
2019-05-10T09:52:44.210Z,1.00
2019-05-10T09:55:15.003Z,1.65
2019-05-10T09:57:47.745Z,1.67
2019-05-10T10:00:17.500Z,1.77
2019-05-10T10:02:55.890Z,1.95
2019-05-10T10:05:18.163Z,1.75
2019-05-10T10:07:48.155Z,1.92
2019-05-10T10:10:29.072Z,1.57
2019-05-10T10:12:58.443Z,3.02
2019-05-10T10:15:33.648Z,2.58
2019-05-10T10:17:58.288Z,2.80
2019-05-10T10:20:29.967Z,2.25
2019-05-10T10:22:59.027Z,2.92
2019-05-10T10:25:30.002Z,2.67
2019-05-10T10:27:59.552Z,2.45
2019-05-10T10:30:31.422Z,3.35
2019-05-10T10:33:00.259Z,2.83
2019-05-10T10:35:29.972Z,2.85
2019-05-10T10:38:02.788Z,2.37
2019-05-10T10:40:35.484Z,3.20
2019-05-10T10:43:07.385Z,3.47
2019-05-10T10:45:38.552Z,2.70
2019-05-10T10:48:12.632Z,2.92
2019-05-10T10:50:59.525Z,3.02
2019-05-10T10:53:28.913Z,2.52
2019-05-10T10:56:03.647Z,2.77
2019-05-10T10:58:29.386Z,2.50
2019-05-10T11:00:58.821Z,3.02
2019-05-10T11:03:30.351Z,3.20
2019-05-10T11:05:59.433Z,3.25
2019-05-10T11:08:32.865Z,2.77
2019-05-10T11:11:00.576Z,3.75
2019-05-10T11:13:45.043Z,3.27
2019-05-10T11:16:10.752Z,3.35
2019-05-10T11:18:41.671Z,2.90
2019-05-10T11:21:11.294Z,2.70
2019-05-10T11:23:41.907Z,3.25
2019-05-10T11:26:11.609Z,3.85
2019-05-10T11:28:44.226Z,2.90
2019-05-10T11:31:12.242Z,2.72
2019-05-10T11:33:41.864Z,3.62
2019-05-10T11:36:12.788Z,3.67
2019-05-10T11:38:42.243Z,4.87
2019-05-10T11:41:20.664Z,3.98
2019-05-10T11:43:43.730Z,4.00
2019-05-10T11:46:14.249Z,3.45
2019-05-10T11:48:43.701Z,3.12
2019-05-10T11:51:17.396Z,2.80
2019-05-10T11:53:48.941Z,2.60
2019-05-10T11:56:15.515Z,3.75
2019-05-10T12:01:19.260Z,2.30
2019-05-10T12:03:47.675Z,2.22
2019-05-10T12:06:17.296Z,2.05
2019-05-10T12:08:46.743Z,1.90
2019-05-10T12:11:29.294Z,1.65
2019-05-10T12:13:47.307Z,2.00
2019-05-10T12:16:17.270Z,2.40
2019-05-10T12:19:02.322Z,1.50
2019-05-10T12:21:21.714Z,1.80
2019-05-10T12:23:55.578Z,1.20
2019-05-10T12:26:00.229Z,2.58
2019-05-10T12:28:52.727Z,1.25
2019-05-10T12:31:23.297Z,1.37
2019-05-10T12:33:53.075Z,1.40
2019-05-10T12:36:27.357Z,1.47
2019-05-10T12:38:56.013Z,1.90
2019-05-10T12:41:24.676Z,2.02
2019-05-10T12:44:02.948Z,1.65
2019-05-10T12:46:25.316Z,2.17
2019-05-10T12:48:54.749Z,1.75
2019-05-10T12:51:24.205Z,2.20
2019-05-10T12:53:53.698Z,1.72
2019-05-10T12:56:23.984Z,2.85
2019-05-10T12:58:57.945Z,2.45
2019-05-10T13:01:25.439Z,2.52
2019-05-10T13:03:55.717Z,3.02
2019-05-10T13:06:25.231Z,3.35
2019-05-10T13:08:54.673Z,2.98
2019-05-10T13:11:25.315Z,2.85
2019-05-10T13:13:55.246Z,2.80
2019-05-10T13:16:26.734Z,2.90
2019-05-10T13:18:56.315Z,2.72
2019-05-10T13:21:25.756Z,3.65
2019-05-10T13:23:55.364Z,2.77
2019-05-10T13:26:25.110Z,3.42
2019-05-10T13:28:54.619Z,2.70
2019-05-10T13:31:24.066Z,3.37
2019-05-10T13:33:53.519Z,3.15
2019-05-10T13:36:23.061Z,3.40
2019-05-10T13:38:52.519Z,3.40
2019-05-10T13:41:24.109Z,3.77
2019-05-10T13:43:53.154Z,3.20
2019-05-10T13:46:32.594Z,3.47
2019-05-10T13:49:02.081Z,3.22
2019-05-10T13:51:31.571Z,2.83
2019-05-10T13:54:05.832Z,4.28
2019-05-10T13:56:35.341Z,3.02
2019-05-10T13:59:15.385Z,3.00
2019-05-10T14:01:36.076Z,2.80
2019-05-10T14:04:05.519Z,3.75
2019-05-10T14:06:36.494Z,2.80
2019-05-10T14:09:07.607Z,4.00
2019-05-10T14:11:41.000Z,3.47
2019-05-10T14:14:14.429Z,3.65
2019-05-10T14:16:42.540Z,4.17
2019-05-10T14:19:15.805Z,2.95
2019-05-10T14:21:43.376Z,3.77
2019-05-10T14:24:22.956Z,2.92
2019-05-10T14:26:57.077Z,3.50
2019-05-10T14:29:32.859Z,3.50
2019-05-10T14:31:55.599Z,3.35
2019-05-10T14:34:26.342Z,2.92
2019-05-10T14:36:55.816Z,3.47
2019-05-10T14:39:25.270Z,2.45
2019-05-10T14:41:54.733Z,2.70
2019-05-10T14:44:24.230Z,3.10
2019-05-10T14:46:53.974Z,2.83
2019-05-10T14:49:23.415Z,3.45
2019-05-10T14:51:59.027Z,3.05
2019-05-10T14:54:23.973Z,3.70
2019-05-10T14:56:54.033Z,3.55
2019-05-10T14:59:24.794Z,3.80
2019-05-10T15:01:54.266Z,3.42
2019-05-10T15:04:44.500Z,3.80
2019-05-10T15:06:55.096Z,4.08
2019-05-10T15:09:24.602Z,3.33
2019-05-10T15:12:10.163Z,3.58
2019-05-10T15:14:44.948Z,3.65
2019-05-10T15:17:19.443Z,3.50
2019-05-10T15:19:55.887Z,3.42
2019-05-10T15:22:37.123Z,2.83
2019-05-10T15:25:06.827Z,2.58
2019-05-10T15:27:36.259Z,2.83
2019-05-10T15:30:08.200Z,2.95
2019-05-10T15:32:37.964Z,2.92
2019-05-10T15:35:10.684Z,3.50
2019-05-10T15:37:46.197Z,3.25
2019-05-10T15:40:15.900Z,3.25
2019-05-10T15:42:45.340Z,3.40
2019-05-10T15:45:19.333Z,2.75
2019-05-10T15:47:51.757Z,2.75
2019-05-10T15:50:19.481Z,3.25
2019-05-10T15:52:48.980Z,2.67
2019-05-10T15:55:26.783Z,3.62
2019-05-10T15:57:51.671Z,3.80
2019-05-10T16:00:25.134Z,3.10
2019-05-10T16:02:53.625Z,3.77
2019-05-10T16:05:29.726Z,3.80
2019-05-10T16:07:54.184Z,2.60
2019-05-10T16:10:28.432Z,3.25
2019-05-10T16:12:54.830Z,2.98
2019-05-10T16:15:24.382Z,3.37
2019-05-10T16:17:59.834Z,3.45
2019-05-10T16:20:31.576Z,2.77
2019-05-10T16:23:02.871Z,3.25
2019-05-10T16:25:32.950Z,3.47
2019-05-10T16:28:02.984Z,2.72
2019-05-10T16:30:32.487Z,2.72
2019-05-10T16:33:01.926Z,2.95
2019-05-10T16:35:38.872Z,2.77
2019-05-10T16:38:07.327Z,3.52
2019-05-10T16:40:36.784Z,2.72
2019-05-10T16:43:07.006Z,3.10
2019-05-10T16:45:37.538Z,2.87
2019-05-10T16:48:08.072Z,3.15
2019-05-10T16:50:40.253Z,3.47
2019-05-10T16:53:09.955Z,3.50
2019-05-10T16:55:42.953Z,3.58
2019-05-10T16:58:15.109Z,3.10
2019-05-10T17:00:46.086Z,3.37
2019-05-10T17:03:18.562Z,3.15
2019-05-10T17:05:53.430Z,3.08
2019-05-10T17:08:19.623Z,2.87
2019-05-10T17:10:49.073Z,3.72
2019-05-10T17:13:18.542Z,4.12
2019-05-10T17:15:49.219Z,3.72
2019-05-10T17:18:22.179Z,3.67
2019-05-10T17:20:55.249Z,3.70
2019-05-10T17:23:24.773Z,2.87
2019-05-10T17:25:54.789Z,3.85
2019-05-10T17:28:24.246Z,3.17
2019-05-10T17:30:59.834Z,2.98
2019-05-10T17:33:28.066Z,3.45
2019-05-10T17:36:07.968Z,3.05
2019-05-10T17:38:31.696Z,4.10
2019-05-10T17:41:01.372Z,3.37
2019-05-10T17:43:32.802Z,4.60
2019-05-10T17:46:07.139Z,3.00
2019-05-10T17:48:47.045Z,3.42
2019-05-10T17:51:13.454Z,4.50
2019-05-10T17:53:45.477Z,4.37
2019-05-10T17:56:16.387Z,4.40
2019-05-10T17:58:45.866Z,4.55
2019-05-10T18:01:15.315Z,4.05
2019-05-10T18:03:48.774Z,4.37
2019-05-10T18:06:23.935Z,3.72
2019-05-10T18:08:49.295Z,3.77
2019-05-10T18:11:18.758Z,4.37
2019-05-10T18:13:48.214Z,4.72
2019-05-10T18:16:17.742Z,3.58
2019-05-10T18:18:48.516Z,3.67
2019-05-10T18:21:21.849Z,3.02
2019-05-10T18:23:52.621Z,3.95
2019-05-10T18:26:22.415Z,3.27
2019-05-10T18:28:53.231Z,3.75
2019-05-10T18:31:22.705Z,4.33
2019-05-10T18:33:54.584Z,2.90
2019-05-10T18:36:24.823Z,4.15
2019-05-10T18:38:54.686Z,4.25
2019-05-10T18:41:24.142Z,3.47
2019-05-10T18:43:53.583Z,3.67
2019-05-10T18:46:25.006Z,3.22
2019-05-10T18:48:55.688Z,3.00
2019-05-10T18:51:34.237Z,3.72
2019-05-10T18:53:57.959Z,3.67
2019-05-10T18:56:31.429Z,3.50
2019-05-10T18:59:06.559Z,3.92
2019-05-10T19:01:32.787Z,4.15
2019-05-10T19:04:07.343Z,3.80
2019-05-10T19:06:33.861Z,3.85
2019-05-10T19:09:05.163Z,3.20
2019-05-10T19:11:38.890Z,4.05
2019-05-10T19:14:06.045Z,4.05
2019-05-10T19:16:35.478Z,3.62
2019-05-10T19:19:04.898Z,3.70
2019-05-10T19:21:37.788Z,4.55
2019-05-10T19:24:08.177Z,4.05
2019-05-10T19:26:39.061Z,3.10
2019-05-10T19:29:08.537Z,3.08
2019-05-10T19:31:40.140Z,3.52
2019-05-10T19:34:15.137Z,4.28
2019-05-10T19:36:41.041Z,4.20
2019-05-10T19:39:10.578Z,4.72
2019-05-10T19:41:40.033Z,3.90
2019-05-10T19:44:09.486Z,4.60
2019-05-10T19:46:40.773Z,3.77
2019-05-10T19:49:15.544Z,4.60
2019-05-10T19:51:48.265Z,4.90
2019-05-10T19:54:21.319Z,4.22
2019-05-10T19:56:54.917Z,3.90
2019-05-10T19:59:24.310Z,4.62
2019-05-10T20:01:58.043Z,4.17
2019-05-10T20:04:27.527Z,5.05
2019-05-10T20:06:59.122Z,5.12
2019-05-10T20:09:35.554Z,4.30
2019-05-10T20:12:05.817Z,4.87
2019-05-10T20:14:35.260Z,4.80
2019-05-10T20:17:09.868Z,4.60
2019-05-10T20:19:40.949Z,4.45
2019-05-10T20:22:13.330Z,4.30
2019-05-10T20:24:44.005Z,3.92
2019-05-10T20:27:13.430Z,4.25
2019-05-10T20:29:44.269Z,3.95
2019-05-10T20:32:16.567Z,4.37
2019-05-10T20:34:48.589Z,4.35
2019-05-10T20:37:20.687Z,4.22
2019-05-10T20:39:54.428Z,4.20
2019-05-10T20:42:23.913Z,4.87
2019-05-10T20:45:06.651Z,5.28
2019-05-10T20:47:25.122Z,4.92
2019-05-10T20:49:58.378Z,4.90
2019-05-10T20:52:30.778Z,4.30
2019-05-10T20:55:02.049Z,4.40
2019-05-10T20:57:33.942Z,4.37
2019-05-10T21:00:07.317Z,4.10
2019-05-10T21:02:38.043Z,4.47
2019-05-10T21:05:07.656Z,4.45
2019-05-10T21:07:39.190Z,5.97
2019-05-10T21:10:10.254Z,4.30
2019-05-10T21:12:41.240Z,5.25
2019-05-10T21:15:12.575Z,4.87
2019-05-10T21:17:42.353Z,4.67
2019-05-10T21:20:13.765Z,4.60
2019-05-10T21:22:43.246Z,5.05
2019-05-10T21:25:12.963Z,4.72
2019-05-10T21:27:42.537Z,3.85
2019-05-10T21:30:12.578Z,5.78
2019-05-10T21:32:43.259Z,4.78
2019-05-10T21:35:14.092Z,3.98
2019-05-10T21:37:43.527Z,4.22
2019-05-10T21:40:13.108Z,4.00
2019-05-10T21:42:42.582Z,4.08
2019-05-10T21:45:13.595Z,4.72
2019-05-10T21:47:51.543Z,4.50
2019-05-10T21:50:15.169Z,4.53
2019-05-10T21:52:44.702Z,5.45
2019-05-10T21:55:14.158Z,4.50
2019-05-10T21:57:45.320Z,4.70
2019-05-10T22:00:22.312Z,4.33
2019-05-10T22:02:53.459Z,4.45
2019-05-10T22:05:24.701Z,5.00
2019-05-10T22:07:57.985Z,4.12
2019-05-10T22:10:29.202Z,4.15
2019-05-10T22:13:01.404Z,4.80
2019-05-10T22:15:30.918Z,4.30
2019-05-10T22:18:01.740Z,3.80
2019-05-10T22:20:33.283Z,5.25
2019-05-10T22:23:15.335Z,4.50
2019-05-10T22:25:48.465Z,5.35
2019-05-10T22:28:21.351Z,4.50
2019-05-10T22:30:57.156Z,5.22
2019-05-10T22:33:26.638Z,4.97
2019-05-10T22:35:56.195Z,4.90
2019-05-10T22:38:25.658Z,5.10
2019-05-10T22:40:56.278Z,5.20
2019-05-10T22:43:29.795Z,5.40
2019-05-10T22:45:59.660Z,6.00
2019-05-10T22:48:29.242Z,5.22
2019-05-10T22:50:58.746Z,4.95
2019-05-10T22:53:28.194Z,5.15
2019-05-10T22:55:57.735Z,5.42
2019-05-10T22:58:28.109Z,5.65
2019-05-10T23:00:57.581Z,5.40
2019-05-10T23:03:27.058Z,5.65
2019-05-10T23:05:56.766Z,3.77
2019-05-10T23:08:26.231Z,4.90
2019-05-10T23:10:55.718Z,5.87
2019-05-10T23:13:25.438Z,6.15
2019-05-10T23:15:54.909Z,6.03
2019-05-10T23:18:24.380Z,5.62
2019-05-10T23:20:53.901Z,5.92
2019-05-10T23:23:23.422Z,5.35
2019-05-10T23:25:54.287Z,5.53
2019-05-10T23:28:24.466Z,6.90
2019-05-10T23:30:54.903Z,5.65
2019-05-10T23:33:24.286Z,7.30
2019-05-10T23:35:54.995Z,6.65
2019-05-10T23:38:24.502Z,6.40
2019-05-10T23:40:54.025Z,5.40
2019-05-10T23:43:23.489Z,6.33
2019-05-10T23:45:52.926Z,5.85
2019-05-10T23:48:22.418Z,5.95
2019-05-10T23:50:53.545Z,5.72
2019-05-10T23:53:24.530Z,6.92
2019-05-10T23:56:01.220Z,6.15
2019-05-10T23:58:30.671Z,5.30
